sensor_id;sensor_type;location;lat;lon;timestamp;P1;durP1;ratioP1;P2;durP2;ratioP2
44214;SDS011;29884;47.450;19.124;2023-09-19T00:02:01;2.58;;;1.58;;
44214;SDS011;29884;47.450;19.124;2023-09-19T00:04:31;3.15;;;1.77;;
44214;SDS011;29884;47.450;19.124;2023-09-19T00:06:57;3.80;;;1.55;;
44214;SDS011;29884;47.450;19.124;2023-09-19T00:09:23;2.85;;;1.40;;
44214;SDS011;29884;47.450;19.124;2023-09-19T00:11:52;3.83;;;1.02;;
44214;SDS011;29884;47.450;19.124;2023-09-19T00:14:18;3.50;;;1.55;;
44214;SDS011;29884;47.450;19.124;2023-09-19T00:16:44;3.85;;;1.80;;
44214;SDS011;29884;47.450;19.124;2023-09-19T00:19:11;4.18;;;1.80;;
44214;SDS011;29884;47.450;19.124;2023-09-19T00:21:38;2.47;;;1.20;;
44214;SDS011;29884;47.450;19.124;2023-09-19T00:24:06;3.55;;;1.90;;
44214;SDS011;29884;47.450;19.124;2023-09-19T00:26:32;4.50;;;1.48;;
44214;SDS011;29884;47.450;19.124;2023-09-19T00:28:59;5.07;;;1.80;;
44214;SDS011;29884;47.450;19.124;2023-09-19T00:31:30;3.28;;;1.35;;
44214;SDS011;29884;47.450;19.124;2023-09-19T00:33:56;4.63;;;1.42;;
44214;SDS011;29884;47.450;19.124;2023-09-19T00:36:25;3.38;;;2.00;;
44214;SDS011;29884;47.450;19.124;2023-09-19T00:38:50;3.38;;;1.60;;
44214;SDS011;29884;47.450;19.124;2023-09-19T00:41:16;4.22;;;1.50;;
44214;SDS011;29884;47.450;19.124;2023-09-19T00:43:42;3.55;;;1.92;;
44214;SDS011;29884;47.450;19.124;2023-09-19T00:46:08;3.92;;;1.27;;
44214;SDS011;29884;47.450;19.124;2023-09-19T00:48:37;4.05;;;1.83;;
44214;SDS011;29884;47.450;19.124;2023-09-19T00:51:09;3.72;;;1.80;;
44214;SDS011;29884;47.450;19.124;2023-09-19T00:53:35;3.72;;;1.60;;
44214;SDS011;29884;47.450;19.124;2023-09-19T00:56:02;3.75;;;1.60;;
44214;SDS011;29884;47.450;19.124;2023-09-19T00:58:32;2.92;;;1.73;;
44214;SDS011;29884;47.450;19.124;2023-09-19T01:01:00;3.15;;;1.48;;
44214;SDS011;29884;47.450;19.124;2023-09-19T01:03:28;4.25;;;1.67;;
44214;SDS011;29884;47.450;19.124;2023-09-19T01:05:54;2.50;;;1.65;;
44214;SDS011;29884;47.450;19.124;2023-09-19T01:08:20;3.15;;;1.55;;
44214;SDS011;29884;47.450;19.124;2023-09-19T01:10:52;3.80;;;1.70;;
44214;SDS011;29884;47.450;19.124;2023-09-19T01:14:02;2.97;;;1.50;;
44214;SDS011;29884;47.450;19.124;2023-09-19T01:16:48;4.25;;;1.83;;
44214;SDS011;29884;47.450;19.124;2023-09-19T01:24:31;3.17;;;2.00;;
44214;SDS011;29884;47.450;19.124;2023-09-19T01:29:44;4.55;;;2.13;;
44214;SDS011;29884;47.450;19.124;2023-09-19T01:32:13;3.65;;;1.77;;
44214;SDS011;29884;47.450;19.124;2023-09-19T01:34:51;3.42;;;1.80;;
44214;SDS011;29884;47.450;19.124;2023-09-19T01:37:19;3.95;;;1.83;;
44214;SDS011;29884;47.450;19.124;2023-09-19T01:39:55;3.55;;;2.00;;
44214;SDS011;29884;47.450;19.124;2023-09-19T01:43:04;5.18;;;2.05;;
44214;SDS011;29884;47.450;19.124;2023-09-19T01:45:47;4.05;;;2.28;;
44214;SDS011;29884;47.450;19.124;2023-09-19T01:51:07;3.22;;;1.80;;
44214;SDS011;29884;47.450;19.124;2023-09-19T01:53:36;3.78;;;1.80;;
44214;SDS011;29884;47.450;19.124;2023-09-19T01:56:19;3.95;;;1.90;;
44214;SDS011;29884;47.450;19.124;2023-09-19T01:58:51;6.05;;;2.70;;
44214;SDS011;29884;47.450;19.124;2023-09-19T02:01:22;4.28;;;2.40;;
44214;SDS011;29884;47.450;19.124;2023-09-19T02:03:50;4.40;;;2.35;;
44214;SDS011;29884;47.450;19.124;2023-09-19T02:06:16;6.20;;;2.05;;
44214;SDS011;29884;47.450;19.124;2023-09-19T02:08:43;7.47;;;2.45;;
44214;SDS011;29884;47.450;19.124;2023-09-19T02:11:10;3.75;;;2.05;;
44214;SDS011;29884;47.450;19.124;2023-09-19T02:13:36;3.33;;;1.98;;
44214;SDS011;29884;47.450;19.124;2023-09-19T02:16:03;6.05;;;1.92;;
44214;SDS011;29884;47.450;19.124;2023-09-19T02:18:29;3.88;;;2.30;;
44214;SDS011;29884;47.450;19.124;2023-09-19T02:20:55;4.93;;;2.45;;
44214;SDS011;29884;47.450;19.124;2023-09-19T02:23:23;3.70;;;2.28;;
44214;SDS011;29884;47.450;19.124;2023-09-19T02:25:59;8.27;;;2.97;;
44214;SDS011;29884;47.450;19.124;2023-09-19T02:28:29;6.15;;;2.30;;
44214;SDS011;29884;47.450;19.124;2023-09-19T02:30:55;3.97;;;2.03;;
44214;SDS011;29884;47.450;19.124;2023-09-19T02:33:21;5.65;;;2.10;;
44214;SDS011;29884;47.450;19.124;2023-09-19T02:35:47;3.03;;;1.80;;
44214;SDS011;29884;47.450;19.124;2023-09-19T02:38:13;4.50;;;1.90;;
44214;SDS011;29884;47.450;19.124;2023-09-19T02:40:43;3.00;;;1.75;;
44214;SDS011;29884;47.450;19.124;2023-09-19T02:43:09;3.38;;;1.92;;
44214;SDS011;29884;47.450;19.124;2023-09-19T02:45:35;3.40;;;1.88;;
44214;SDS011;29884;47.450;19.124;2023-09-19T02:48:00;4.03;;;2.10;;
44214;SDS011;29884;47.450;19.124;2023-09-19T02:50:27;7.65;;;2.58;;
44214;SDS011;29884;47.450;19.124;2023-09-19T02:52:52;4.38;;;2.50;;
44214;SDS011;29884;47.450;19.124;2023-09-19T02:55:19;4.53;;;2.20;;
44214;SDS011;29884;47.450;19.124;2023-09-19T02:57:47;6.35;;;2.10;;
44214;SDS011;29884;47.450;19.124;2023-09-19T03:00:13;3.25;;;1.83;;
44214;SDS011;29884;47.450;19.124;2023-09-19T03:02:39;6.90;;;2.17;;
44214;SDS011;29884;47.450;19.124;2023-09-19T03:05:06;4.95;;;2.58;;
44214;SDS011;29884;47.450;19.124;2023-09-19T03:07:33;5.70;;;2.55;;
44214;SDS011;29884;47.450;19.124;2023-09-19T03:09:59;3.78;;;1.95;;
44214;SDS011;29884;47.450;19.124;2023-09-19T03:12:28;4.72;;;2.40;;
44214;SDS011;29884;47.450;19.124;2023-09-19T03:14:54;5.68;;;2.83;;
44214;SDS011;29884;47.450;19.124;2023-09-19T03:17:20;2.97;;;2.03;;
44214;SDS011;29884;47.450;19.124;2023-09-19T03:19:46;3.42;;;2.03;;
44214;SDS011;29884;47.450;19.124;2023-09-19T03:22:13;7.35;;;2.55;;
44214;SDS011;29884;47.450;19.124;2023-09-19T03:24:39;3.92;;;2.42;;
44214;SDS011;29884;47.450;19.124;2023-09-19T03:27:05;5.15;;;2.65;;
44214;SDS011;29884;47.450;19.124;2023-09-19T03:29:31;3.28;;;1.98;;
44214;SDS011;29884;47.450;19.124;2023-09-19T03:31:56;6.50;;;2.30;;
44214;SDS011;29884;47.450;19.124;2023-09-19T03:34:22;4.53;;;2.25;;
44214;SDS011;29884;47.450;19.124;2023-09-19T03:36:48;3.33;;;1.90;;
44214;SDS011;29884;47.450;19.124;2023-09-19T03:39:13;6.50;;;2.88;;
44214;SDS011;29884;47.450;19.124;2023-09-19T03:41:40;5.80;;;2.63;;
44214;SDS011;29884;47.450;19.124;2023-09-19T03:44:06;7.40;;;2.78;;
44214;SDS011;29884;47.450;19.124;2023-09-19T03:46:32;6.15;;;2.83;;
44214;SDS011;29884;47.450;19.124;2023-09-19T03:49:00;5.80;;;2.55;;
44214;SDS011;29884;47.450;19.124;2023-09-19T03:51:26;5.80;;;2.72;;
44214;SDS011;29884;47.450;19.124;2023-09-19T03:53:51;4.13;;;2.33;;
44214;SDS011;29884;47.450;19.124;2023-09-19T03:56:17;6.72;;;2.40;;
44214;SDS011;29884;47.450;19.124;2023-09-19T03:58:43;6.55;;;2.70;;
44214;SDS011;29884;47.450;19.124;2023-09-19T04:01:09;8.05;;;3.03;;
44214;SDS011;29884;47.450;19.124;2023-09-19T04:03:35;5.75;;;2.75;;
44214;SDS011;29884;47.450;19.124;2023-09-19T04:06:14;5.82;;;2.80;;
44214;SDS011;29884;47.450;19.124;2023-09-19T04:08:41;5.28;;;2.40;;
44214;SDS011;29884;47.450;19.124;2023-09-19T04:11:07;5.20;;;2.35;;
44214;SDS011;29884;47.450;19.124;2023-09-19T04:13:33;5.65;;;2.67;;
44214;SDS011;29884;47.450;19.124;2023-09-19T04:15:58;6.50;;;3.20;;
44214;SDS011;29884;47.450;19.124;2023-09-19T04:18:24;5.05;;;3.05;;
44214;SDS011;29884;47.450;19.124;2023-09-19T04:20:50;6.32;;;3.45;;
44214;SDS011;29884;47.450;19.124;2023-09-19T04:23:16;6.18;;;3.20;;
44214;SDS011;29884;47.450;19.124;2023-09-19T04:25:42;5.60;;;3.70;;
44214;SDS011;29884;47.450;19.124;2023-09-19T04:28:08;4.75;;;3.00;;
44214;SDS011;29884;47.450;19.124;2023-09-19T04:30:37;5.00;;;3.20;;
44214;SDS011;29884;47.450;19.124;2023-09-19T04:33:05;5.63;;;3.38;;
44214;SDS011;29884;47.450;19.124;2023-09-19T04:35:31;6.45;;;3.20;;
44214;SDS011;29884;47.450;19.124;2023-09-19T04:37:57;7.72;;;3.20;;
44214;SDS011;29884;47.450;19.124;2023-09-19T04:40:23;6.50;;;3.53;;
44214;SDS011;29884;47.450;19.124;2023-09-19T04:42:54;6.55;;;3.10;;
44214;SDS011;29884;47.450;19.124;2023-09-19T04:45:22;8.32;;;3.30;;
44214;SDS011;29884;47.450;19.124;2023-09-19T04:47:49;7.88;;;3.67;;
44214;SDS011;29884;47.450;19.124;2023-09-19T04:50:14;4.05;;;2.38;;
44214;SDS011;29884;47.450;19.124;2023-09-19T04:52:42;6.35;;;3.22;;
44214;SDS011;29884;47.450;19.124;2023-09-19T04:55:10;5.25;;;2.67;;
44214;SDS011;29884;47.450;19.124;2023-09-19T04:57:43;8.93;;;3.35;;
44214;SDS011;29884;47.450;19.124;2023-09-19T05:00:10;9.13;;;3.80;;
44214;SDS011;29884;47.450;19.124;2023-09-19T05:02:40;7.75;;;3.30;;
44214;SDS011;29884;47.450;19.124;2023-09-19T05:05:07;7.05;;;2.72;;
44214;SDS011;29884;47.450;19.124;2023-09-19T05:07:33;8.15;;;3.38;;
44214;SDS011;29884;47.450;19.124;2023-09-19T05:09:59;5.18;;;2.30;;
44214;SDS011;29884;47.450;19.124;2023-09-19T05:12:28;4.07;;;1.65;;
44214;SDS011;29884;47.450;19.124;2023-09-19T05:14:54;3.53;;;1.45;;
44214;SDS011;29884;47.450;19.124;2023-09-19T05:17:20;5.00;;;1.05;;
44214;SDS011;29884;47.450;19.124;2023-09-19T05:19:46;2.25;;;0.82;;
44214;SDS011;29884;47.450;19.124;2023-09-19T05:22:12;2.58;;;0.73;;
44214;SDS011;29884;47.450;19.124;2023-09-19T05:24:37;2.08;;;0.70;;
44214;SDS011;29884;47.450;19.124;2023-09-19T05:27:04;1.50;;;0.60;;
44214;SDS011;29884;47.450;19.124;2023-09-19T05:29:32;2.53;;;0.60;;
44214;SDS011;29884;47.450;19.124;2023-09-19T05:31:58;1.95;;;0.50;;
44214;SDS011;29884;47.450;19.124;2023-09-19T05:34:24;1.13;;;0.57;;
44214;SDS011;29884;47.450;19.124;2023-09-19T05:36:55;2.30;;;0.38;;
44214;SDS011;29884;47.450;19.124;2023-09-19T05:39:21;0.75;;;0.30;;
44214;SDS011;29884;47.450;19.124;2023-09-19T05:41:47;2.03;;;0.57;;
44214;SDS011;29884;47.450;19.124;2023-09-19T05:44:13;2.28;;;0.30;;
44214;SDS011;29884;47.450;19.124;2023-09-19T05:46:40;0.52;;;0.30;;
44214;SDS011;29884;47.450;19.124;2023-09-19T05:49:05;0.45;;;0.25;;
44214;SDS011;29884;47.450;19.124;2023-09-19T05:51:31;0.80;;;0.38;;
44214;SDS011;29884;47.450;19.124;2023-09-19T05:53:57;1.50;;;0.30;;
44214;SDS011;29884;47.450;19.124;2023-09-19T05:56:23;0.55;;;0.30;;
44214;SDS011;29884;47.450;19.124;2023-09-19T05:58:49;0.63;;;0.40;;
44214;SDS011;29884;47.450;19.124;2023-09-19T06:01:17;0.80;;;0.30;;
44214;SDS011;29884;47.450;19.124;2023-09-19T06:03:43;0.40;;;0.20;;
44214;SDS011;29884;47.450;19.124;2023-09-19T06:06:08;0.40;;;0.20;;
44214;SDS011;29884;47.450;19.124;2023-09-19T06:08:34;0.93;;;0.30;;
44214;SDS011;29884;47.450;19.124;2023-09-19T06:11:00;0.90;;;0.45;;
44214;SDS011;29884;47.450;19.124;2023-09-19T06:13:28;1.83;;;0.32;;
44214;SDS011;29884;47.450;19.124;2023-09-19T06:15:55;0.98;;;0.40;;
44214;SDS011;29884;47.450;19.124;2023-09-19T06:18:25;0.77;;;0.35;;
44214;SDS011;29884;47.450;19.124;2023-09-19T06:20:51;0.50;;;0.28;;
44214;SDS011;29884;47.450;19.124;2023-09-19T06:23:17;0.70;;;0.30;;
44214;SDS011;29884;47.450;19.124;2023-09-19T06:25:45;0.60;;;0.30;;
44214;SDS011;29884;47.450;19.124;2023-09-19T06:28:10;0.43;;;0.20;;
44214;SDS011;29884;47.450;19.124;2023-09-19T06:30:39;0.20;;;0.15;;
44214;SDS011;29884;47.450;19.124;2023-09-19T06:33:05;0.40;;;0.20;;
44214;SDS011;29884;47.450;19.124;2023-09-19T06:35:32;0.93;;;0.30;;
44214;SDS011;29884;47.450;19.124;2023-09-19T06:37:58;0.20;;;0.20;;
44214;SDS011;29884;47.450;19.124;2023-09-19T06:40:28;0.32;;;0.20;;
44214;SDS011;29884;47.450;19.124;2023-09-19T06:42:56;0.77;;;0.10;;
44214;SDS011;29884;47.450;19.124;2023-09-19T06:45:22;0.38;;;0.30;;
44214;SDS011;29884;47.450;19.124;2023-09-19T06:47:50;2.00;;;0.13;;
44214;SDS011;29884;47.450;19.124;2023-09-19T06:50:17;0.13;;;0.10;;
44214;SDS011;29884;47.450;19.124;2023-09-19T06:52:45;0.40;;;0.20;;
44214;SDS011;29884;47.450;19.124;2023-09-19T06:55:13;0.30;;;0.10;;
44214;SDS011;29884;47.450;19.124;2023-09-19T06:57:41;0.20;;;0.10;;
44214;SDS011;29884;47.450;19.124;2023-09-19T07:00:09;0.60;;;0.20;;
44214;SDS011;29884;47.450;19.124;2023-09-19T07:02:43;0.20;;;0.10;;
44214;SDS011;29884;47.450;19.124;2023-09-19T07:05:19;1.65;;;0.20;;
44214;SDS011;29884;47.450;19.124;2023-09-19T07:07:46;0.17;;;0.10;;
44214;SDS011;29884;47.450;19.124;2023-09-19T07:10:12;0.50;;;0.10;;
44214;SDS011;29884;47.450;19.124;2023-09-19T07:12:39;1.55;;;0.20;;
44214;SDS011;29884;47.450;19.124;2023-09-19T07:15:06;2.60;;;0.20;;
44214;SDS011;29884;47.450;19.124;2023-09-19T07:17:32;0.47;;;0.30;;
44214;SDS011;29884;47.450;19.124;2023-09-19T07:19:58;0.30;;;0.20;;
44214;SDS011;29884;47.450;19.124;2023-09-19T07:22:25;1.60;;;0.45;;
44214;SDS011;29884;47.450;19.124;2023-09-19T07:24:51;0.63;;;0.10;;
44214;SDS011;29884;47.450;19.124;2023-09-19T07:27:17;0.80;;;0.17;;
44214;SDS011;29884;47.450;19.124;2023-09-19T07:29:43;0.60;;;0.28;;
44214;SDS011;29884;47.450;19.124;2023-09-19T07:32:10;0.60;;;0.30;;
44214;SDS011;29884;47.450;19.124;2023-09-19T07:34:36;0.68;;;0.20;;
44214;SDS011;29884;47.450;19.124;2023-09-19T07:37:05;0.77;;;0.25;;
44214;SDS011;29884;47.450;19.124;2023-09-19T07:39:31;0.30;;;0.20;;
44214;SDS011;29884;47.450;19.124;2023-09-19T07:41:57;0.68;;;0.28;;
44214;SDS011;29884;47.450;19.124;2023-09-19T07:44:23;2.00;;;0.20;;
44214;SDS011;29884;47.450;19.124;2023-09-19T07:46:50;0.25;;;0.20;;
44214;SDS011;29884;47.450;19.124;2023-09-19T07:49:17;0.43;;;0.20;;
44214;SDS011;29884;47.450;19.124;2023-09-19T07:51:43;0.57;;;0.20;;
44214;SDS011;29884;47.450;19.124;2023-09-19T07:54:11;0.32;;;0.10;;
44214;SDS011;29884;47.450;19.124;2023-09-19T07:56:37;0.45;;;0.20;;
44214;SDS011;29884;47.450;19.124;2023-09-19T07:59:03;0.20;;;0.10;;
44214;SDS011;29884;47.450;19.124;2023-09-19T08:01:29;0.47;;;0.28;;
44214;SDS011;29884;47.450;19.124;2023-09-19T08:03:55;1.15;;;0.20;;
44214;SDS011;29884;47.450;19.124;2023-09-19T08:06:21;1.58;;;0.45;;
44214;SDS011;29884;47.450;19.124;2023-09-19T08:08:46;0.85;;;0.28;;
44214;SDS011;29884;47.450;19.124;2023-09-19T08:11:15;0.95;;;0.40;;
44214;SDS011;29884;47.450;19.124;2023-09-19T08:13:46;0.70;;;0.40;;
44214;SDS011;29884;47.450;19.124;2023-09-19T08:16:14;0.57;;;0.30;;
44214;SDS011;29884;47.450;19.124;2023-09-19T08:18:48;0.50;;;0.30;;
44214;SDS011;29884;47.450;19.124;2023-09-19T08:23:44;0.93;;;0.30;;
44214;SDS011;29884;47.450;19.124;2023-09-19T08:26:10;0.52;;;0.30;;
44214;SDS011;29884;47.450;19.124;2023-09-19T08:28:36;1.20;;;0.20;;
44214;SDS011;29884;47.450;19.124;2023-09-19T08:31:06;0.50;;;0.30;;
44214;SDS011;29884;47.450;19.124;2023-09-19T08:33:33;0.90;;;0.40;;
44214;SDS011;29884;47.450;19.124;2023-09-19T08:36:00;2.63;;;0.30;;
44214;SDS011;29884;47.450;19.124;2023-09-19T08:38:30;0.95;;;0.30;;
44214;SDS011;29884;47.450;19.124;2023-09-19T08:41:00;1.83;;;0.30;;
44214;SDS011;29884;47.450;19.124;2023-09-19T08:43:29;0.52;;;0.20;;
44214;SDS011;29884;47.450;19.124;2023-09-19T08:46:03;1.50;;;0.30;;
44214;SDS011;29884;47.450;19.124;2023-09-19T08:48:45;0.98;;;0.30;;
44214;SDS011;29884;47.450;19.124;2023-09-19T08:51:23;0.88;;;0.30;;
44214;SDS011;29884;47.450;19.124;2023-09-19T08:54:03;0.90;;;0.40;;
44214;SDS011;29884;47.450;19.124;2023-09-19T08:56:31;0.80;;;0.40;;
44214;SDS011;29884;47.450;19.124;2023-09-19T08:59:04;0.50;;;0.40;;
44214;SDS011;29884;47.450;19.124;2023-09-19T09:01:33;0.95;;;0.38;;
44214;SDS011;29884;47.450;19.124;2023-09-19T09:04:01;0.50;;;0.20;;
44214;SDS011;29884;47.450;19.124;2023-09-19T09:06:27;1.02;;;0.20;;
44214;SDS011;29884;47.450;19.124;2023-09-19T09:08:54;1.15;;;0.20;;
44214;SDS011;29884;47.450;19.124;2023-09-19T09:11:20;0.75;;;0.30;;
44214;SDS011;29884;47.450;19.124;2023-09-19T09:13:48;1.23;;;0.20;;
44214;SDS011;29884;47.450;19.124;2023-09-19T09:16:14;0.90;;;0.25;;
44214;SDS011;29884;47.450;19.124;2023-09-19T09:18:44;1.00;;;0.40;;
44214;SDS011;29884;47.450;19.124;2023-09-19T09:21:10;0.68;;;0.30;;
44214;SDS011;29884;47.450;19.124;2023-09-19T09:23:38;0.73;;;0.40;;
44214;SDS011;29884;47.450;19.124;2023-09-19T09:26:04;0.95;;;0.30;;
44214;SDS011;29884;47.450;19.124;2023-09-19T09:28:32;1.00;;;0.22;;
44214;SDS011;29884;47.450;19.124;2023-09-19T09:31:00;0.75;;;0.30;;
44214;SDS011;29884;47.450;19.124;2023-09-19T09:33:37;0.63;;;0.20;;
44214;SDS011;29884;47.450;19.124;2023-09-19T09:36:04;0.98;;;0.40;;
44214;SDS011;29884;47.450;19.124;2023-09-19T09:38:44;1.23;;;0.40;;
44214;SDS011;29884;47.450;19.124;2023-09-19T09:41:11;0.85;;;0.50;;
44214;SDS011;29884;47.450;19.124;2023-09-19T09:43:41;1.00;;;0.50;;
44214;SDS011;29884;47.450;19.124;2023-09-19T09:46:13;1.08;;;0.40;;
44214;SDS011;29884;47.450;19.124;2023-09-19T09:48:47;1.15;;;0.45;;
44214;SDS011;29884;47.450;19.124;2023-09-19T09:51:39;1.95;;;0.50;;
44214;SDS011;29884;47.450;19.124;2023-09-19T09:54:17;1.10;;;0.30;;
44214;SDS011;29884;47.450;19.124;2023-09-19T09:59:20;0.85;;;0.30;;
44214;SDS011;29884;47.450;19.124;2023-09-19T10:01:49;0.88;;;0.50;;
44214;SDS011;29884;47.450;19.124;2023-09-19T10:04:36;2.17;;;0.40;;
44214;SDS011;29884;47.450;19.124;2023-09-19T10:07:01;1.00;;;0.60;;
44214;SDS011;29884;47.450;19.124;2023-09-19T10:09:44;1.55;;;0.40;;
44214;SDS011;29884;47.450;19.124;2023-09-19T10:12:12;0.60;;;0.30;;
44214;SDS011;29884;47.450;19.124;2023-09-19T10:14:38;0.47;;;0.30;;
44214;SDS011;29884;47.450;19.124;2023-09-19T10:17:09;0.68;;;0.30;;
44214;SDS011;29884;47.450;19.124;2023-09-19T10:22:11;0.40;;;0.30;;
44214;SDS011;29884;47.450;19.124;2023-09-19T10:24:45;0.50;;;0.30;;
44214;SDS011;29884;47.450;19.124;2023-09-19T10:27:15;2.08;;;0.50;;
44214;SDS011;29884;47.450;19.124;2023-09-19T10:29:42;0.80;;;0.50;;
44214;SDS011;29884;47.450;19.124;2023-09-19T10:32:12;2.03;;;0.50;;
44214;SDS011;29884;47.450;19.124;2023-09-19T10:34:44;0.95;;;0.40;;
44214;SDS011;29884;47.450;19.124;2023-09-19T10:37:12;1.20;;;0.52;;
44214;SDS011;29884;47.450;19.124;2023-09-19T10:39:39;0.63;;;0.40;;
44214;SDS011;29884;47.450;19.124;2023-09-19T10:42:06;0.75;;;0.45;;
44214;SDS011;29884;47.450;19.124;2023-09-19T10:44:34;0.90;;;0.50;;
44214;SDS011;29884;47.450;19.124;2023-09-19T10:47:08;1.00;;;0.63;;
44214;SDS011;29884;47.450;19.124;2023-09-19T10:49:34;0.98;;;0.50;;
44214;SDS011;29884;47.450;19.124;2023-09-19T10:52:00;1.08;;;0.60;;
44214;SDS011;29884;47.450;19.124;2023-09-19T10:54:31;1.45;;;0.73;;
44214;SDS011;29884;47.450;19.124;2023-09-19T10:57:02;1.98;;;0.60;;
44214;SDS011;29884;47.450;19.124;2023-09-19T10:59:30;1.33;;;0.70;;
44214;SDS011;29884;47.450;19.124;2023-09-19T11:02:00;1.23;;;0.70;;
44214;SDS011;29884;47.450;19.124;2023-09-19T11:04:42;1.60;;;0.70;;
44214;SDS011;29884;47.450;19.124;2023-09-19T11:09:49;2.67;;;0.80;;
44214;SDS011;29884;47.450;19.124;2023-09-19T11:12:47;1.50;;;0.80;;
44214;SDS011;29884;47.450;19.124;2023-09-19T11:16:02;1.05;;;0.60;;
44214;SDS011;29884;47.450;19.124;2023-09-19T11:26:57;1.15;;;0.70;;
44214;SDS011;29884;47.450;19.124;2023-09-19T11:29:42;0.73;;;0.70;;
44214;SDS011;29884;47.450;19.124;2023-09-19T11:32:08;1.80;;;0.57;;
44214;SDS011;29884;47.450;19.124;2023-09-19T11:39:37;0.80;;;0.40;;
44214;SDS011;29884;47.450;19.124;2023-09-19T11:48:23;0.60;;;0.20;;
44214;SDS011;29884;47.450;19.124;2023-09-19T11:50:52;2.90;;;0.40;;
44214;SDS011;29884;47.450;19.124;2023-09-19T11:53:18;0.40;;;0.20;;
44214;SDS011;29884;47.450;19.124;2023-09-19T11:55:46;0.55;;;0.17;;
44214;SDS011;29884;47.450;19.124;2023-09-19T11:58:14;0.75;;;0.10;;
44214;SDS011;29884;47.450;19.124;2023-09-19T12:00:41;0.55;;;0.20;;
44214;SDS011;29884;47.450;19.124;2023-09-19T12:03:11;0.52;;;0.20;;
44214;SDS011;29884;47.450;19.124;2023-09-19T12:05:39;0.20;;;0.10;;
44214;SDS011;29884;47.450;19.124;2023-09-19T12:08:05;0.68;;;0.10;;
44214;SDS011;29884;47.450;19.124;2023-09-19T12:10:46;0.10;;;0.10;;
44214;SDS011;29884;47.450;19.124;2023-09-19T12:13:17;0.40;;;0.15;;
44214;SDS011;29884;47.450;19.124;2023-09-19T12:15:43;0.65;;;0.10;;
44214;SDS011;29884;47.450;19.124;2023-09-19T12:18:26;0.45;;;0.20;;
44214;SDS011;29884;47.450;19.124;2023-09-19T12:20:53;0.30;;;0.20;;
44214;SDS011;29884;47.450;19.124;2023-09-19T12:23:20;0.55;;;0.20;;
44214;SDS011;29884;47.450;19.124;2023-09-19T12:25:46;0.55;;;0.20;;
44214;SDS011;29884;47.450;19.124;2023-09-19T12:28:15;1.55;;;0.28;;
44214;SDS011;29884;47.450;19.124;2023-09-19T12:30:47;0.28;;;0.20;;
44214;SDS011;29884;47.450;19.124;2023-09-19T12:33:16;0.50;;;0.20;;
44214;SDS011;29884;47.450;19.124;2023-09-19T12:35:46;0.43;;;0.20;;
44214;SDS011;29884;47.450;19.124;2023-09-19T12:38:28;0.35;;;0.20;;
44214;SDS011;29884;47.450;19.124;2023-09-19T12:40:55;0.38;;;0.28;;
44214;SDS011;29884;47.450;19.124;2023-09-19T12:43:21;0.50;;;0.30;;
44214;SDS011;29884;47.450;19.124;2023-09-19T12:45:48;0.38;;;0.20;;
44214;SDS011;29884;47.450;19.124;2023-09-19T12:48:23;1.35;;;0.28;;
44214;SDS011;29884;47.450;19.124;2023-09-19T12:51:06;1.10;;;0.30;;
44214;SDS011;29884;47.450;19.124;2023-09-19T12:53:36;1.40;;;0.30;;
44214;SDS011;29884;47.450;19.124;2023-09-19T12:56:05;1.33;;;0.40;;
44214;SDS011;29884;47.450;19.124;2023-09-19T12:58:33;0.60;;;0.30;;
44214;SDS011;29884;47.450;19.124;2023-09-19T13:01:00;0.95;;;0.40;;
44214;SDS011;29884;47.450;19.124;2023-09-19T13:03:30;0.88;;;0.30;;
44214;SDS011;29884;47.450;19.124;2023-09-19T13:06:01;1.17;;;0.30;;
44214;SDS011;29884;47.450;19.124;2023-09-19T13:08:33;0.20;;;0.20;;
44214;SDS011;29884;47.450;19.124;2023-09-19T13:13:49;0.60;;;0.30;;
44214;SDS011;29884;47.450;19.124;2023-09-19T13:16:52;0.77;;;0.20;;
44214;SDS011;29884;47.450;19.124;2023-09-19T13:19:34;0.52;;;0.30;;
44214;SDS011;29884;47.450;19.124;2023-09-19T13:22:41;0.50;;;0.30;;
44214;SDS011;29884;47.450;19.124;2023-09-19T13:25:17;0.60;;;0.30;;
44214;SDS011;29884;47.450;19.124;2023-09-19T13:27:44;0.73;;;0.30;;
44214;SDS011;29884;47.450;19.124;2023-09-19T13:30:13;0.85;;;0.32;;
44214;SDS011;29884;47.450;19.124;2023-09-19T13:32:39;1.02;;;0.40;;
44214;SDS011;29884;47.450;19.124;2023-09-19T13:35:06;0.60;;;0.30;;
44214;SDS011;29884;47.450;19.124;2023-09-19T13:37:35;1.17;;;0.20;;
44214;SDS011;29884;47.450;19.124;2023-09-19T13:40:07;0.50;;;0.22;;
44214;SDS011;29884;47.450;19.124;2023-09-19T13:42:33;0.95;;;0.30;;
44214;SDS011;29884;47.450;19.124;2023-09-19T13:44:59;0.63;;;0.20;;
44214;SDS011;29884;47.450;19.124;2023-09-19T13:47:25;0.65;;;0.20;;
44214;SDS011;29884;47.450;19.124;2023-09-19T13:49:52;0.50;;;0.30;;
44214;SDS011;29884;47.450;19.124;2023-09-19T13:52:18;0.52;;;0.35;;
44214;SDS011;29884;47.450;19.124;2023-09-19T13:54:45;0.80;;;0.22;;
44214;SDS011;29884;47.450;19.124;2023-09-19T13:57:10;2.13;;;0.30;;
44214;SDS011;29884;47.450;19.124;2023-09-19T13:59:36;0.55;;;0.30;;
44214;SDS011;29884;47.450;19.124;2023-09-19T14:02:02;4.57;;;0.20;;
44214;SDS011;29884;47.450;19.124;2023-09-19T14:04:28;0.75;;;0.20;;
44214;SDS011;29884;47.450;19.124;2023-09-19T14:06:54;0.40;;;0.22;;
44214;SDS011;29884;47.450;19.124;2023-09-19T14:09:19;1.17;;;0.30;;
44214;SDS011;29884;47.450;19.124;2023-09-19T14:11:46;1.73;;;0.30;;
44214;SDS011;29884;47.450;19.124;2023-09-19T14:14:13;1.02;;;0.40;;
44214;SDS011;29884;47.450;19.124;2023-09-19T14:16:39;0.80;;;0.30;;
44214;SDS011;29884;47.450;19.124;2023-09-19T14:19:06;0.50;;;0.20;;
44214;SDS011;29884;47.450;19.124;2023-09-19T14:21:33;0.40;;;0.30;;
44214;SDS011;29884;47.450;19.124;2023-09-19T14:23:59;0.28;;;0.20;;
44214;SDS011;29884;47.450;19.124;2023-09-19T14:26:25;0.30;;;0.20;;
44214;SDS011;29884;47.450;19.124;2023-09-19T14:28:51;0.93;;;0.30;;
44214;SDS011;29884;47.450;19.124;2023-09-19T14:31:16;0.50;;;0.30;;
44214;SDS011;29884;47.450;19.124;2023-09-19T14:33:42;0.40;;;0.20;;
44214;SDS011;29884;47.450;19.124;2023-09-19T14:36:09;0.38;;;0.30;;
44214;SDS011;29884;47.450;19.124;2023-09-19T14:38:36;0.70;;;0.30;;
44214;SDS011;29884;47.450;19.124;2023-09-19T14:41:05;0.65;;;0.40;;
44214;SDS011;29884;47.450;19.124;2023-09-19T14:43:31;1.98;;;0.52;;
44214;SDS011;29884;47.450;19.124;2023-09-19T14:46:02;1.05;;;0.30;;
44214;SDS011;29884;47.450;19.124;2023-09-19T14:48:28;0.60;;;0.35;;
44214;SDS011;29884;47.450;19.124;2023-09-19T14:50:54;0.52;;;0.40;;
44214;SDS011;29884;47.450;19.124;2023-09-19T14:53:20;1.25;;;0.40;;
44214;SDS011;29884;47.450;19.124;2023-09-19T14:55:46;0.88;;;0.30;;
44214;SDS011;29884;47.450;19.124;2023-09-19T14:58:16;0.63;;;0.30;;
44214;SDS011;29884;47.450;19.124;2023-09-19T15:00:43;1.70;;;0.30;;
44214;SDS011;29884;47.450;19.124;2023-09-19T15:03:10;1.80;;;0.30;;
44214;SDS011;29884;47.450;19.124;2023-09-19T15:05:36;0.60;;;0.28;;
44214;SDS011;29884;47.450;19.124;2023-09-19T15:08:02;0.63;;;0.30;;
44214;SDS011;29884;47.450;19.124;2023-09-19T15:10:28;1.20;;;0.40;;
44214;SDS011;29884;47.450;19.124;2023-09-19T15:12:54;0.60;;;0.20;;
44214;SDS011;29884;47.450;19.124;2023-09-19T15:15:20;0.90;;;0.40;;
44214;SDS011;29884;47.450;19.124;2023-09-19T15:17:49;1.15;;;0.40;;
44214;SDS011;29884;47.450;19.124;2023-09-19T15:20:15;2.30;;;0.40;;
44214;SDS011;29884;47.450;19.124;2023-09-19T15:22:42;1.50;;;0.50;;
44214;SDS011;29884;47.450;19.124;2023-09-19T15:25:09;0.55;;;0.40;;
44214;SDS011;29884;47.450;19.124;2023-09-19T15:27:35;1.33;;;0.40;;